Time;durP1;ratioP1;P1;durP2;ratioP2;P2;SDS_P1;SDS_P2;PMS_P1;PMS_P2;Temp;Humidity;BMP_temperature;BMP_pressure;BME280_temperature;BME280_humidity;BME280_pressure;Samples;Min_cycle;Max_cycle;Signal;HPM_P1;HPM_P2
2023/07/18 00:00:32;;;;;;;0.10;0.10;;;22.60;99.90;;;;;;5018232;28;20025;-76
2023/07/18 00:02:59;;;;;;;0.20;0.20;;;22.50;99.90;;;;;;5018324;28;20018;-82
2023/07/18 00:05:25;;;;;;;0.10;0.10;;;22.50;99.90;;;;;;5017834;28;20124;-83
2023/07/18 00:07:51;;;;;;;0.10;0.10;;;22.40;99.90;;;;;;5018991;28;20213;-80
2023/07/18 00:10:19;;;;;;;0.38;0.38;;;22.40;99.90;;;;;;5021564;28;20527;-75
2023/07/18 00:12:45;;;;;;;1.80;1.70;;;22.40;99.90;;;;;;5022327;28;20018;-91
2023/07/18 00:15:12;;;;;;;1.50;0.93;;;22.30;99.90;;;;;;5021738;28;20029;-74
2023/07/18 00:17:40;;;;;;;0.10;0.10;;;22.30;99.90;;;;;;5021596;28;20026;-75
2023/07/18 00:20:09;;;;;;;0.10;0.10;;;22.40;99.90;;;;;;5021456;28;20026;-78
2023/07/18 00:22:35;;;;;;;0.43;0.43;;;22.50;99.90;;;;;;5021792;28;20014;-81
2023/07/18 00:25:01;;;;;;;0.10;0.10;;;22.60;99.90;;;;;;5021589;28;20363;-84
2023/07/18 00:27:28;;;;;;;0.30;0.30;;;22.60;99.90;;;;;;5022287;28;20021;-78
2023/07/18 00:29:56;;;;;;;0.10;0.10;;;22.70;99.90;;;;;;5021272;28;20022;-77
2023/07/18 00:32:24;;;;;;;0.50;0.50;;;22.50;99.90;;;;;;5021025;28;20580;-81
2023/07/18 00:34:56;;;;;;;0.10;0.10;;;22.70;99.90;;;;;;5021309;28;20101;-86
2023/07/18 00:37:24;;;;;;;0.10;0.10;;;22.70;99.90;;;;;;5019772;28;20446;-86
2023/07/18 00:39:52;;;;;;;0.10;0.10;;;22.70;99.90;;;;;;5021085;28;20014;-75
2023/07/18 00:42:18;;;;;;;0.47;0.47;;;22.80;99.90;;;;;;5023400;28;20111;-84
2023/07/18 00:44:44;;;;;;;0.40;0.40;;;22.90;99.90;;;;;;5024004;28;20065;-87
2023/07/18 00:47:10;;;;;;;0.25;0.20;;;23.00;99.90;;;;;;5022785;28;20451;-79
2023/07/18 00:49:36;;;;;;;0.22;0.22;;;22.80;99.90;;;;;;5023506;28;20213;-82
2023/07/18 00:52:02;;;;;;;0.50;0.50;;;23.10;99.90;;;;;;5021518;28;20103;-82
2023/07/18 00:54:28;;;;;;;0.10;0.10;;;23.10;99.90;;;;;;5020086;28;20676;-74
2023/07/18 00:56:55;;;;;;;0.40;0.40;;;23.10;99.90;;;;;;5021553;28;20452;-88
2023/07/18 00:59:23;;;;;;;0.43;0.43;;;23.10;99.90;;;;;;5021122;28;20245;-81
2023/07/18 01:01:49;;;;;;;0.43;0.43;;;23.30;99.90;;;;;;5020535;28;20025;-81
2023/07/18 01:04:15;;;;;;;0.10;0.10;;;23.50;99.90;;;;;;5019316;28;20530;-84
2023/07/18 01:06:41;;;;;;;0.20;0.20;;;23.70;99.90;;;;;;5019340;28;20026;-82
2023/07/18 01:09:08;;;;;;;0.35;0.35;;;23.90;99.90;;;;;;5020560;28;20025;-82
2023/07/18 01:11:34;;;;;;;0.10;0.10;;;24.10;99.90;;;;;;5020265;28;20060;-75
2023/07/18 01:14:00;;;;;;;0.10;0.10;;;24.30;99.90;;;;;;5021771;28;20072;-83
2023/07/18 01:16:25;;;;;;;1.88;1.75;;;24.30;99.90;;;;;;5021644;28;20040;-82
2023/07/18 01:18:52;;;;;;;0.10;0.10;;;24.30;99.90;;;;;;5026155;28;21000;-82
2023/07/18 01:21:22;;;;;;;0.10;0.10;;;24.30;99.90;;;;;;5026757;28;20028;-77
2023/07/18 01:23:49;;;;;;;0.65;0.65;;;24.50;99.90;;;;;;5026015;28;20021;-78
2023/07/18 01:26:15;;;;;;;0.10;0.10;;;23.90;99.90;;;;;;5027660;28;20033;-82
2023/07/18 01:28:41;;;;;;;0.55;0.47;;;24.00;99.90;;;;;;5026580;28;20150;-78
2023/07/18 01:31:07;;;;;;;0.00;0.00;;;24.10;99.90;;;;;;5024999;28;20333;-86
2023/07/18 01:33:33;;;;;;;0.10;0.10;;;23.90;99.90;;;;;;5025316;28;20326;-79
2023/07/18 01:36:00;;;;;;;0.10;0.10;;;23.80;99.90;;;;;;5022609;28;20029;-91
2023/07/18 01:38:29;;;;;;;2.75;2.65;;;23.90;99.90;;;;;;5021343;28;20022;-77
2023/07/18 01:40:59;;;;;;;1.05;1.05;;;23.80;99.90;;;;;;5023682;28;20393;-81
2023/07/18 01:43:25;;;;;;;0.60;0.60;;;23.80;99.90;;;;;;5026115;28;20044;-85
2023/07/18 01:45:51;;;;;;;0.20;0.20;;;23.60;99.90;;;;;;5022011;28;20385;-90
2023/07/18 01:48:18;;;;;;;0.30;0.30;;;23.60;99.90;;;;;;5022834;28;20014;-80
2023/07/18 01:50:44;;;;;;;6.22;1.35;;;23.70;99.90;;;;;;5021562;28;20214;-76
2023/07/18 01:53:11;;;;;;;0.10;0.10;;;23.70;99.90;;;;;;5019337;28;20034;-83
2023/07/18 01:55:40;;;;;;;0.45;0.40;;;23.90;99.90;;;;;;5021550;28;20075;-91
2023/07/18 01:58:06;;;;;;;1.08;1.08;;;23.90;99.90;;;;;;5021449;28;20041;-85
2023/07/18 02:00:35;;;;;;;1.13;0.93;;;23.90;99.90;;;;;;5020108;28;20091;-79
2023/07/18 02:03:01;;;;;;;0.95;0.95;;;24.00;99.90;;;;;;5019669;28;20322;-82
2023/07/18 02:05:29;;;;;;;0.20;0.20;;;23.90;99.90;;;;;;5021528;28;20488;-77
2023/07/18 02:07:57;;;;;;;0.10;0.10;;;23.90;99.90;;;;;;5020313;28;20022;-87
2023/07/18 02:10:24;;;;;;;0.10;0.10;;;24.00;99.90;;;;;;5022572;28;20116;-83
2023/07/18 02:12:51;;;;;;;0.30;0.30;;;24.10;99.90;;;;;;5031389;28;20021;-85
2023/07/18 02:15:18;;;;;;;0.30;0.30;;;24.10;99.90;;;;;;5023505;28;20029;-89
2023/07/18 02:17:43;;;;;;;0.32;0.25;;;24.20;99.90;;;;;;5027648;28;20017;-79
2023/07/18 02:20:11;;;;;;;0.13;0.13;;;24.10;99.90;;;;;;5027562;28;20037;-87
2023/07/18 02:22:38;;;;;;;0.10;0.10;;;24.10;99.90;;;;;;5027039;28;20594;-82
2023/07/18 02:25:05;;;;;;;0.40;0.40;;;24.10;99.90;;;;;;5026982;28;20365;-82
2023/07/18 02:27:35;;;;;;;0.28;0.28;;;24.10;99.90;;;;;;5023641;28;20018;-92
2023/07/18 02:30:01;;;;;;;0.55;0.55;;;24.10;99.90;;;;;;5026365;28;20229;-86
2023/07/18 02:32:29;;;;;;;0.00;0.00;;;24.10;99.90;;;;;;5027888;28;20348;-84
2023/07/18 02:34:55;;;;;;;0.10;0.10;;;24.10;99.90;;;;;;5023914;28;20124;-81
2023/07/18 02:37:23;;;;;;;0.10;0.10;;;24.10;99.90;;;;;;5026792;28;20021;-82
2023/07/18 02:39:49;;;;;;;0.70;0.52;;;24.10;99.90;;;;;;5025685;28;20120;-74
2023/07/18 02:42:15;;;;;;;0.05;0.05;;;24.00;99.90;;;;;;5019840;28;20022;-81
2023/07/18 02:44:41;;;;;;;0.10;0.10;;;24.00;99.90;;;;;;5020058;28;20353;-77
2023/07/18 02:47:07;;;;;;;0.10;0.10;;;24.00;99.90;;;;;;5019281;28;20167;-78
2023/07/18 02:49:33;;;;;;;0.10;0.10;;;24.00;99.90;;;;;;5020427;28;20036;-91
2023/07/18 02:51:59;;;;;;;0.40;0.40;;;24.00;99.90;;;;;;5019747;28;20322;-88
2023/07/18 02:54:24;;;;;;;0.10;0.10;;;24.10;99.90;;;;;;5020320;28;20033;-86
2023/07/18 02:56:50;;;;;;;0.10;0.10;;;23.70;99.90;;;;;;5019622;28;20022;-76
2023/07/18 02:59:20;;;;;;;0.20;0.20;;;23.70;99.90;;;;;;5017966;28;20375;-75
2023/07/18 03:01:49;;;;;;;0.60;0.55;;;23.80;99.90;;;;;;5017738;28;20032;-76
2023/07/18 03:04:16;;;;;;;0.15;0.15;;;23.90;99.90;;;;;;5017955;28;20389;-75
2023/07/18 03:06:42;;;;;;;0.15;0.15;;;23.90;99.90;;;;;;5018044;28;20038;-80
2023/07/18 03:09:09;;;;;;;0.30;0.30;;;23.20;99.90;;;;;;5016171;28;20030;-74
2023/07/18 03:11:35;;;;;;;0.10;0.10;;;23.80;99.90;;;;;;5017989;28;20100;-83
2023/07/18 03:14:01;;;;;;;0.10;0.10;;;24.00;99.90;;;;;;5017890;28;20615;-79
2023/07/18 03:16:26;;;;;;;5.22;1.75;;;24.10;99.90;;;;;;5017570;28;20100;-73
2023/07/18 03:18:54;;;;;;;0.85;0.82;;;24.10;99.90;;;;;;5017835;28;20026;-73
2023/07/18 03:21:20;;;;;;;0.10;0.10;;;24.10;99.90;;;;;;5016111;28;20057;-74
2023/07/18 03:23:45;;;;;;;0.20;0.20;;;24.10;99.90;;;;;;5017304;28;20072;-85
2023/07/18 03:26:11;;;;;;;0.28;0.28;;;24.10;99.90;;;;;;5017677;28;20507;-81
2023/07/18 03:28:37;;;;;;;1.10;1.08;;;24.10;99.90;;;;;;5017766;28;20014;-76
2023/07/18 03:31:03;;;;;;;1.75;1.05;;;24.10;99.90;;;;;;5017375;28;20226;-75
2023/07/18 03:33:29;;;;;;;0.20;0.20;;;24.10;99.90;;;;;;5017251;28;20242;-77
2023/07/18 03:35:54;;;;;;;0.10;0.10;;;24.00;99.90;;;;;;5017956;28;20056;-74
2023/07/18 03:38:20;;;;;;;0.10;0.10;;;24.10;99.90;;;;;;5017454;28;20531;-74
2023/07/18 03:40:50;;;;;;;0.20;0.20;;;24.10;99.90;;;;;;5017015;28;20033;-74
2023/07/18 03:43:16;;;;;;;0.20;0.20;;;24.10;99.90;;;;;;5018135;28;20022;-76
2023/07/18 03:45:41;;;;;;;0.10;0.10;;;24.00;99.90;;;;;;5021110;28;20039;-75
2023/07/18 03:48:07;;;;;;;0.22;0.22;;;23.90;99.90;;;;;;5020895;28;20021;-83
2023/07/18 03:50:33;;;;;;;0.52;0.52;;;24.00;99.90;;;;;;5021175;28;20113;-80
2023/07/18 03:52:58;;;;;;;0.40;0.40;;;23.90;99.90;;;;;;5021130;28;20500;-80
2023/07/18 03:55:24;;;;;;;0.30;0.30;;;23.60;99.90;;;;;;5019496;28;20033;-77
2023/07/18 03:57:50;;;;;;;0.40;0.40;;;23.70;99.90;;;;;;5019745;28;20073;-78
2023/07/18 04:00:17;;;;;;;0.10;0.10;;;23.70;99.90;;;;;;5020723;28;20534;-76
2023/07/18 04:02:45;;;;;;;1.30;0.70;;;23.60;99.90;;;;;;5020840;28;20104;-82
2023/07/18 04:05:13;;;;;;;0.40;0.40;;;;;;;;;;5020552;28;20029;-77
2023/07/18 04:07:41;;;;;;;0.25;0.25;;;23.20;99.90;;;;;;5022514;28;20726;-80
2023/07/18 04:10:07;;;;;;;1.20;1.00;;;23.40;99.90;;;;;;5021335;28;20032;-80
2023/07/18 04:12:32;;;;;;;0.13;0.13;;;23.20;99.90;;;;;;5024869;28;20087;-79
2023/07/18 04:14:58;;;;;;;2.08;1.98;;;23.40;99.90;;;;;;5022222;28;20033;-79
2023/07/18 04:17:25;;;;;;;0.80;0.80;;;23.50;99.90;;;;;;5019519;28;20555;-76
2023/07/18 04:19:59;;;;;;;0.10;0.10;;;23.50;99.90;;;;;;5019725;28;20030;-83
2023/07/18 04:22:25;;;;;;;1.85;1.05;;;23.50;99.90;;;;;;5021002;28;20095;-78
2023/07/18 04:24:54;;;;;;;0.10;0.10;;;23.50;99.90;;;;;;5020830;28;20029;-78
2023/07/18 04:27:19;;;;;;;0.93;0.57;;;23.70;99.90;;;;;;5020988;28;20032;-78
2023/07/18 04:29:45;;;;;;;0.10;0.10;;;23.70;99.90;;;;;;5020502;28;20108;-80
2023/07/18 04:32:11;;;;;;;0.47;0.47;;;23.60;99.90;;;;;;5020515;28;20025;-77
2023/07/18 04:34:37;;;;;;;0.30;0.30;;;23.80;99.90;;;;;;5020251;28;20032;-82
2023/07/18 04:37:03;;;;;;;0.17;0.17;;;23.70;99.90;;;;;;5020208;28;20322;-81
2023/07/18 04:39:30;;;;;;;0.10;0.10;;;23.50;99.90;;;;;;5020016;28;20318;-79
2023/07/18 04:41:56;;;;;;;0.10;0.10;;;23.50;99.90;;;;;;5020175;28;20194;-76
2023/07/18 04:44:25;;;;;;;0.10;0.10;;;23.60;99.90;;;;;;5019862;28;20056;-77
2023/07/18 04:46:52;;;;;;;2.40;2.30;;;23.60;99.90;;;;;;5020352;28;20029;-78
2023/07/18 04:49:19;;;;;;;0.38;0.30;;;23.70;99.90;;;;;;5020095;28;20017;-87
2023/07/18 04:51:44;;;;;;;0.10;0.10;;;23.80;99.90;;;;;;5020273;28;20021;-86
2023/07/18 04:54:10;;;;;;;0.10;0.10;;;23.90;99.90;;;;;;5019387;28;20026;-76
2023/07/18 04:56:36;;;;;;;1.55;1.05;;;24.00;99.90;;;;;;5019636;28;20044;-79
2023/07/18 04:59:02;;;;;;;0.73;0.65;;;24.20;99.90;;;;;;5019505;28;20542;-87
2023/07/18 05:01:28;;;;;;;1.17;1.17;;;24.20;99.90;;;;;;5019537;28;20537;-78
2023/07/18 05:03:56;;;;;;;0.38;0.38;;;24.30;99.90;;;;;;5019862;28;20658;-81
2023/07/18 05:06:21;;;;;;;0.10;0.10;;;24.40;99.90;;;;;;5020788;28;20124;-88
2023/07/18 05:08:47;;;;;;;0.10;0.10;;;24.40;99.90;;;;;;5020135;28;20159;-85
2023/07/18 05:11:13;;;;;;;0.52;0.52;;;24.20;99.90;;;;;;5020095;28;20403;-77
2023/07/18 05:13:39;;;;;;;0.32;0.32;;;24.10;99.90;;;;;;5019874;28;20091;-82
2023/07/18 05:16:05;;;;;;;0.47;0.47;;;24.20;99.90;;;;;;5018179;28;20052;-77
2023/07/18 05:18:31;;;;;;;0.20;0.20;;;24.20;99.90;;;;;;5019328;28;20018;-78
2023/07/18 05:20:57;;;;;;;0.82;0.82;;;24.00;99.90;;;;;;5019555;28;20018;-84
2023/07/18 05:23:23;;;;;;;0.10;0.10;;;23.80;99.90;;;;;;5019722;28;20230;-84
2023/07/18 05:25:49;;;;;;;0.20;0.20;;;23.70;99.90;;;;;;5019315;28;20041;-77
2023/07/18 05:28:15;;;;;;;0.10;0.10;;;24.00;99.90;;;;;;5019491;28;20546;-78
2023/07/18 05:30:40;;;;;;;0.73;0.73;;;24.10;99.90;;;;;;5019279;28;20048;-82
2023/07/18 05:33:07;;;;;;;1.35;0.95;;;24.20;99.90;;;;;;5019079;28;20061;-80
2023/07/18 05:35:33;;;;;;;4.50;1.20;;;22.80;99.90;;;;;;5018820;28;20508;-76
2023/07/18 05:38:01;;;;;;;1.52;1.45;;;24.50;99.90;;;;;;5019252;28;20037;-74
2023/07/18 05:40:27;;;;;;;0.60;0.60;;;24.50;99.90;;;;;;5018765;28;20018;-76
2023/07/18 05:42:53;;;;;;;0.60;0.60;;;24.70;99.90;;;;;;5018718;28;20053;-82
2023/07/18 05:45:19;;;;;;;0.30;0.30;;;24.80;99.90;;;;;;5018474;28;20095;-76
2023/07/18 05:47:45;;;;;;;0.20;0.20;;;24.90;99.90;;;;;;5017926;28;20286;-76
2023/07/18 05:50:11;;;;;;;0.60;0.50;;;;;;;;;;5016924;28;20425;-77
2023/07/18 05:52:37;;;;;;;0.57;0.57;;;24.90;99.90;;;;;;5018678;28;20097;-80
2023/07/18 05:55:04;;;;;;;0.10;0.10;;;25.00;99.90;;;;;;5018064;28;20403;-84
2023/07/18 05:57:30;;;;;;;0.10;0.10;;;24.90;99.90;;;;;;5017184;28;20098;-83
2023/07/18 05:59:56;;;;;;;0.82;0.80;;;25.00;99.90;;;;;;5020036;28;20029;-79
2023/07/18 06:02:22;;;;;;;0.13;0.13;;;25.10;99.90;;;;;;5021104;28;20040;-77
2023/07/18 06:04:48;;;;;;;0.40;0.40;;;25.20;99.90;;;;;;5019981;28;20842;-78
2023/07/18 06:07:14;;;;;;;0.17;0.17;;;25.20;99.90;;;;;;5019628;28;20167;-80
2023/07/18 06:09:40;;;;;;;1.25;0.65;;;25.40;99.90;;;;;;5018716;28;20025;-76
2023/07/18 06:12:07;;;;;;;0.52;0.52;;;25.50;99.90;;;;;;5018456;28;20021;-75
2023/07/18 06:14:33;;;;;;;0.85;0.85;;;25.50;99.90;;;;;;5018008;28;20021;-80
2023/07/18 06:16:59;;;;;;;0.10;0.10;;;25.70;99.90;;;;;;5017755;28;20293;-74
2023/07/18 06:19:25;;;;;;;0.32;0.25;;;25.70;99.90;;;;;;5017297;28;20108;-74
2023/07/18 06:21:51;;;;;;;0.80;0.38;;;25.70;99.90;;;;;;5016323;28;20033;-74
2023/07/18 06:24:17;;;;;;;0.20;0.20;;;25.90;99.90;;;;;;5017569;28;20033;-83
2023/07/18 06:26:48;;;;;;;0.08;0.08;;;25.90;99.90;;;;;;5016634;28;20033;-77
2023/07/18 06:29:17;;;;;;;0.20;0.20;;;26.00;99.90;;;;;;5017587;28;20017;-83
2023/07/18 06:31:44;;;;;;;0.73;0.73;;;26.10;99.90;;;;;;5017388;28;20229;-76
2023/07/18 06:34:10;;;;;;;1.00;0.70;;;26.20;99.90;;;;;;5017300;28;20056;-73
2023/07/18 06:36:35;;;;;;;0.70;0.70;;;26.20;99.90;;;;;;5036320;28;20025;-74
2023/07/18 06:39:01;;;;;;;0.00;0.00;;;26.20;99.90;;;;;;5039049;28;20052;-78
2023/07/18 06:41:27;;;;;;;0.10;0.10;;;26.30;99.90;;;;;;5038971;28;20861;-78
2023/07/18 06:43:53;;;;;;;0.65;0.65;;;26.40;99.90;;;;;;5036494;28;20026;-77
2023/07/18 06:46:19;;;;;;;0.63;0.60;;;26.50;99.90;;;;;;5039981;28;20067;-74
2023/07/18 06:48:45;;;;;;;0.20;0.20;;;26.60;99.90;;;;;;5039387;28;20074;-80
2023/07/18 06:51:11;;;;;;;14.20;1.85;;;25.50;99.90;;;;;;5039170;28;20574;-79
2023/07/18 06:53:36;;;;;;;7.13;2.92;;;26.50;99.90;;;;;;5041562;28;20279;-78
2023/07/18 06:56:02;;;;;;;0.35;0.35;;;26.60;99.90;;;;;;5042152;28;20029;-74
2023/07/18 06:58:28;;;;;;;0.63;0.63;;;26.70;99.90;;;;;;5043169;28;20064;-79
2023/07/18 07:00:54;;;;;;;0.10;0.10;;;26.80;99.90;;;;;;5043349;28;20025;-78
2023/07/18 07:03:19;;;;;;;0.38;0.38;;;26.90;99.90;;;;;;5039476;28;20082;-74
2023/07/18 07:05:45;;;;;;;0.10;0.10;;;27.10;99.90;;;;;;5039476;28;20056;-81
2023/07/18 07:08:12;;;;;;;0.20;0.20;;;27.10;99.90;;;;;;5040049;28;20021;-84
2023/07/18 07:10:41;;;;;;;0.00;0.00;;;27.30;99.90;;;;;;5038325;28;20032;-76
2023/07/18 07:13:08;;;;;;;0.25;0.25;;;27.40;99.90;;;;;;5037953;28;20017;-79
2023/07/18 07:15:34;;;;;;;0.63;0.63;;;27.50;99.90;;;;;;5037980;28;20014;-75
2023/07/18 07:18:00;;;;;;;0.88;0.85;;;27.50;99.90;;;;;;5036878;28;20117;-78
2023/07/18 07:20:28;;;;;;;0.55;0.55;;;27.60;99.90;;;;;;5036055;28;20103;-74
2023/07/18 07:22:55;;;;;;;6.03;4.32;;;27.70;99.90;;;;;;5037413;28;20025;-82
2023/07/18 07:25:21;;;;;;;0.10;0.10;;;27.70;99.90;;;;;;5037421;28;20025;-75
2023/07/18 07:27:47;;;;;;;0.43;0.30;;;26.80;99.90;;;;;;5037213;28;20023;-74
2023/07/18 07:30:15;;;;;;;2.53;2.33;;;27.80;99.90;;;;;;5037406;28;20667;-84
2023/07/18 07:32:43;;;;;;;0.50;0.45;;;27.50;99.90;;;;;;5037420;28;20036;-75
2023/07/18 07:35:09;;;;;;;0.30;0.30;;;27.80;99.90;;;;;;5037726;28;20013;-74
2023/07/18 07:37:34;;;;;;;0.43;0.25;;;28.00;99.90;;;;;;5037403;28;20021;-76
2023/07/18 07:40:00;;;;;;;3.20;2.92;;;28.10;99.90;;;;;;5037648;28;20029;-80
2023/07/18 07:42:26;;;;;;;3.85;0.65;;;28.20;99.90;;;;;;5037152;28;20504;-80
2023/07/18 07:44:52;;;;;;;0.20;0.20;;;28.30;99.90;;;;;;5037412;28;20020;-77
2023/07/18 07:47:17;;;;;;;0.60;0.50;;;28.20;99.90;;;;;;5037789;28;20087;-76
2023/07/18 07:49:43;;;;;;;0.20;0.20;;;28.20;99.90;;;;;;5037150;28;20671;-78
2023/07/18 07:52:09;;;;;;;0.20;0.20;;;28.30;99.90;;;;;;5037306;28;20021;-75
2023/07/18 07:54:35;;;;;;;0.30;0.30;;;28.30;99.90;;;;;;5037336;28;20021;-76
2023/07/18 07:57:00;;;;;;;0.10;0.10;;;28.40;99.90;;;;;;5035491;28;20048;-75
2023/07/18 07:59:26;;;;;;;0.10;0.10;;;28.60;99.90;;;;;;5037311;28;20232;-78
2023/07/18 08:01:52;;;;;;;0.88;0.85;;;28.70;99.90;;;;;;5036965;28;20025;-74
2023/07/18 08:04:18;;;;;;;0.35;0.30;;;28.80;99.90;;;;;;5036848;28;20025;-75
2023/07/18 08:06:43;;;;;;;0.20;0.20;;;28.80;99.90;;;;;;5037523;28;20579;-79
2023/07/18 08:09:10;;;;;;;1.65;0.98;;;28.90;99.90;;;;;;5036180;28;20017;-78
2023/07/18 08:11:35;;;;;;;0.10;0.10;;;29.00;99.90;;;;;;5037301;28;20017;-79
2023/07/18 08:14:01;;;;;;;0.20;0.20;;;29.00;99.90;;;;;;5037274;28;20024;-75
2023/07/18 08:16:27;;;;;;;0.10;0.10;;;29.20;99.90;;;;;;5037167;28;20083;-74
2023/07/18 08:18:53;;;;;;;0.30;0.30;;;29.40;99.90;;;;;;5036738;28;20664;-78
2023/07/18 08:21:19;;;;;;;0.95;0.57;;;29.10;99.90;;;;;;5037519;28;20078;-81
2023/07/18 08:23:45;;;;;;;1.20;1.10;;;29.60;99.90;;;;;;5038197;28;20020;-74
2023/07/18 08:26:11;;;;;;;0.25;0.25;;;29.50;99.90;;;;;;5038567;28;20132;-76
2023/07/18 08:28:36;;;;;;;0.60;0.60;;;29.70;99.90;;;;;;5040573;28;20093;-79
2023/07/18 08:31:05;;;;;;;0.10;0.10;;;29.70;99.90;;;;;;5042178;28;20033;-79
2023/07/18 08:33:31;;;;;;;0.90;0.75;;;29.80;99.90;;;;;;5041953;28;20040;-79
2023/07/18 08:35:57;;;;;;;0.52;0.52;;;30.00;99.90;;;;;;5041229;28;20659;-76
2023/07/18 08:38:22;;;;;;;0.82;0.77;;;30.30;99.90;;;;;;5042328;28;20035;-74
2023/07/18 08:40:49;;;;;;;0.40;0.40;;;30.50;99.90;;;;;;5041520;28;20058;-75
2023/07/18 08:43:16;;;;;;;0.43;0.38;;;30.60;99.90;;;;;;5039428;28;20028;-75
2023/07/18 08:45:43;;;;;;;3.10;0.70;;;30.70;99.90;;;;;;5040426;28;20029;-79
2023/07/18 08:48:12;;;;;;;0.20;0.20;;;30.90;99.90;;;;;;5042364;28;20097;-75
2023/07/18 08:50:40;;;;;;;0.45;0.38;;;30.80;99.90;;;;;;5041775;28;20040;-75
2023/07/18 08:53:06;;;;;;;0.30;0.30;;;30.90;99.90;;;;;;5043076;28;20017;-75
2023/07/18 08:55:32;;;;;;;0.40;0.28;;;30.90;99.90;;;;;;5043072;28;20630;-77
2023/07/18 08:57:59;;;;;;;1.63;1.05;;;30.90;99.90;;;;;;5041940;28;20726;-80
2023/07/18 09:00:25;;;;;;;0.70;0.52;;;31.20;99.90;;;;;;5042243;28;20090;-75
2023/07/18 09:02:51;;;;;;;0.73;0.30;;;31.20;99.70;;;;;;5042373;28;20029;-75
2023/07/18 09:05:34;;;;;;;11.15;3.83;;;31.00;99.70;;;;;;5040780;28;20021;-74
2023/07/18 09:08:00;;;;;;;;;;;31.00;99.90;;;;;;5041196;28;20037;-74
2023/07/18 09:10:26;;;;;;;2.38;1.23;;;31.10;99.90;;;;;;5039371;28;19940;-84
2023/07/18 09:12:52;;;;;;;4.90;4.60;;;31.30;99.90;;;;;;5039503;28;20144;-74
2023/07/18 09:15:19;;;;;;;0.32;0.32;;;31.30;99.90;;;;;;5040140;28;20029;-86
2023/07/18 09:18:01;;;;;;;1.20;0.75;;;31.50;99.90;;;;;;5039674;28;20086;-80
2023/07/18 09:20:29;;;;;;;0.47;0.47;;;31.50;99.80;;;;;;5041041;28;20029;-81
2023/07/18 09:22:59;;;;;;;3.20;2.42;;;31.70;99.70;;;;;;5038936;28;20601;-77
2023/07/18 09:25:26;;;;;;;0.80;0.50;;;28.20;98.90;;;;;;5038629;28;20033;-74
2023/07/18 09:27:53;;;;;;;2.38;1.05;;;31.80;99.90;;;;;;5039342;28;20032;-74
2023/07/18 09:30:34;;;;;;;0.40;0.20;;;31.80;99.80;;;;;;5037858;28;20158;-74
2023/07/18 09:33:04;;;;;;;0.52;0.52;;;31.80;99.70;;;;;;5039587;28;20048;-77
2023/07/18 09:35:30;;;;;;;1.48;1.23;;;31.70;99.90;;;;;;5039843;28;20427;-77
2023/07/18 09:37:56;;;;;;;0.47;0.45;;;31.80;99.80;;;;;;5040212;28;20024;-76
2023/07/18 09:40:22;;;;;;;1.65;0.98;;;31.90;99.70;;;;;;5040301;28;20036;-78
2023/07/18 09:42:49;;;;;;;0.20;0.20;;;31.80;99.80;;;;;;5040345;28;20025;-82
2023/07/18 09:45:16;;;;;;;1.77;1.02;;;31.80;99.90;;;;;;5040597;28;20053;-84
2023/07/18 09:47:44;;;;;;;1.05;0.95;;;32.00;99.90;;;;;;5040676;28;20285;-86
2023/07/18 09:50:12;;;;;;;0.25;0.25;;;32.10;99.90;;;;;;5038684;28;20048;-78
2023/07/18 09:52:49;;;;;;;0.68;0.55;;;32.00;99.90;;;;;;5039465;28;20749;-88
2023/07/18 09:55:24;;;;;;;2.20;1.42;;;32.30;99.70;;;;;;5040905;28;20109;-85
2023/07/18 09:57:53;;;;;;;0.15;0.15;;;32.50;99.30;;;;;;5040542;28;20041;-80
2023/07/18 10:00:22;;;;;;;1.13;0.88;;;32.70;99.00;;;;;;5039482;28;20507;-83
2023/07/18 10:02:49;;;;;;;0.32;0.32;;;32.50;99.10;;;;;;5039403;28;20114;-75
2023/07/18 10:05:16;;;;;;;0.22;0.22;;;32.70;99.30;;;;;;5039086;28;20021;-85
2023/07/18 10:07:43;;;;;;;0.90;0.90;;;32.90;98.80;;;;;;5039574;28;20031;-81
2023/07/18 10:10:10;;;;;;;1.38;1.27;;;33.10;99.00;;;;;;5039052;28;20044;-79
2023/07/18 10:12:37;;;;;;;1.33;0.77;;;33.20;98.90;;;;;;5039139;28;20013;-82
2023/07/18 10:15:04;;;;;;;0.63;0.63;;;33.40;98.60;;;;;;5038897;28;20025;-76
2023/07/18 10:17:39;;;;;;;0.80;0.63;;;33.60;98.40;;;;;;5038612;28;20621;-80
2023/07/18 10:20:13;;;;;;;0.17;0.17;;;33.50;97.90;;;;;;5038969;28;20021;-80
2023/07/18 10:22:59;;;;;;;0.50;0.50;;;33.70;97.30;;;;;;5038803;28;20032;-84
2023/07/18 10:25:32;;;;;;;0.63;0.57;;;33.80;96.80;;;;;;5038514;28;20033;-77
2023/07/18 10:27:59;;;;;;;1.02;0.95;;;34.00;96.70;;;;;;5038533;28;20025;-76
2023/07/18 10:30:37;;;;;;;1.05;0.55;;;33.90;96.20;;;;;;5038841;28;20082;-75
2023/07/18 10:33:03;;;;;;;0.20;0.20;;;34.10;96.20;;;;;;5038729;28;20021;-86
2023/07/18 10:35:29;;;;;;;1.00;0.60;;;34.20;95.80;;;;;;5037512;28;20542;-79
2023/07/18 10:38:09;;;;;;;1.80;1.55;;;34.30;95.30;;;;;;5038672;28;20079;-79
2023/07/18 10:40:36;;;;;;;1.08;0.73;;;34.10;95.60;;;;;;5038406;28;20036;-83
2023/07/18 10:43:10;;;;;;;2.10;0.93;;;34.20;93.80;;;;;;5038957;28;20096;-77
2023/07/18 10:45:41;;;;;;;0.28;0.28;;;34.20;91.30;;;;;;5037261;28;20621;-74
2023/07/18 10:48:15;;;;;;;3.33;1.75;;;34.30;89.90;;;;;;5038707;28;20037;-76
2023/07/18 10:50:42;;;;;;;0.80;0.40;;;34.50;89.10;;;;;;5038922;28;20025;-84
2023/07/18 10:53:19;;;;;;;0.73;0.70;;;34.50;88.20;;;;;;5037761;28;20519;-75
2023/07/18 10:55:46;;;;;;;0.47;0.40;;;34.80;85.50;;;;;;5038171;28;20024;-83
2023/07/18 10:58:19;;;;;;;0.30;0.30;;;34.90;85.40;;;;;;5037805;28;20047;-84
2023/07/18 11:00:46;;;;;;;1.83;0.88;;;35.40;85.10;;;;;;5038342;28;20578;-86
2023/07/18 11:03:27;;;;;;;0.70;0.68;;;35.70;83.40;;;;;;5039494;28;20096;-86
2023/07/18 11:05:53;;;;;;;1.65;1.15;;;35.90;86.10;;;;;;5038540;28;20049;-78
2023/07/18 11:08:29;;;;;;;1.15;1.00;;;36.20;88.80;;;;;;5038823;28;20014;-78
2023/07/18 11:11:05;;;;;;;0.38;0.38;;;36.20;86.90;;;;;;5040427;28;20021;-81
2023/07/18 11:13:33;;;;;;;1.15;0.95;;;36.60;86.60;;;;;;5041405;28;20510;-82
2023/07/18 11:16:04;;;;;;;0.43;0.43;;;36.70;82.70;;;;;;5039409;28;20025;-75
2023/07/18 11:18:36;;;;;;;0.28;0.28;;;37.00;83.70;;;;;;5042166;28;20628;-76
2023/07/18 11:21:03;;;;;;;1.15;0.47;;;36.80;84.70;;;;;;5040348;28;20114;-77
2023/07/18 11:23:31;;;;;;;2.22;0.82;;;37.10;84.90;;;;;;5042396;28;20032;-79
2023/07/18 11:25:56;;;;;;;1.60;1.05;;;36.90;81.60;;;;;;5042007;28;20333;-75
2023/07/18 11:28:33;;;;;;;0.95;0.73;;;37.40;81.70;;;;;;5042848;28;20028;-82
2023/07/18 11:30:59;;;;;;;1.30;0.82;;;37.30;80.90;;;;;;5046066;28;20147;-79
2023/07/18 11:33:29;;;;;;;1.65;0.65;;;37.50;79.20;;;;;;5045288;28;20056;-76
2023/07/18 11:35:56;;;;;;;0.63;0.63;;;37.40;77.30;;;;;;5042532;28;20096;-76
2023/07/18 11:38:24;;;;;;;1.27;1.08;;;37.40;78.30;;;;;;5040331;28;20024;-77
2023/07/18 11:40:50;;;;;;;4.03;2.13;;;37.50;77.80;;;;;;5038485;28;20679;-79
2023/07/18 11:43:20;;;;;;;3.60;1.33;;;37.70;76.80;;;;;;5039432;28;20025;-75
2023/07/18 11:45:46;;;;;;;1.55;0.93;;;37.70;75.40;;;;;;5037819;28;20036;-77
2023/07/18 11:48:16;;;;;;;0.52;0.50;;;38.00;74.90;;;;;;5037691;28;20082;-77
2023/07/18 11:50:45;;;;;;;1.10;0.70;;;37.80;73.60;;;;;;5039415;28;20075;-80
2023/07/18 11:53:27;;;;;;;1.30;0.90;;;37.60;73.70;;;;;;5041549;28;20178;-78
2023/07/18 11:55:56;;;;;;;2.25;1.10;;;37.20;74.60;;;;;;5041086;28;20660;-75
2023/07/18 11:58:22;;;;;;;2.58;0.47;;;36.60;75.60;;;;;;5041820;28;20680;-76
2023/07/18 12:00:48;;;;;;;1.17;0.63;;;36.20;76.00;;;;;;5042018;28;20538;-75
2023/07/18 12:03:14;;;;;;;0.85;0.65;;;35.60;77.00;;;;;;5036950;28;20025;-76
2023/07/18 12:05:40;;;;;;;0.68;0.50;;;35.30;77.50;;;;;;5041908;28;20025;-80
2023/07/18 12:08:05;;;;;;;0.15;0.15;;;35.10;78.70;;;;;;5041829;28;20032;-80
2023/07/18 12:10:32;;;;;;;6.72;0.52;;;33.00;78.10;;;;;;5041525;28;20029;-76
2023/07/18 12:12:58;;;;;;;1.67;0.88;;;34.90;80.60;;;;;;5041687;28;20067;-80
2023/07/18 12:15:24;;;;;;;0.40;0.40;;;34.80;81.00;;;;;;5042567;28;20009;-81
2023/07/18 12:17:50;;;;;;;1.02;0.55;;;34.90;81.60;;;;;;5040430;28;20025;-81
2023/07/18 12:20:16;;;;;;;0.65;0.40;;;35.40;81.00;;;;;;5040965;28;20044;-76
2023/07/18 12:22:41;;;;;;;0.57;0.47;;;36.00;80.70;;;;;;5041358;28;20048;-84
2023/07/18 12:25:08;;;;;;;0.82;0.73;;;36.70;78.00;;;;;;5041246;28;20029;-85
2023/07/18 12:27:34;;;;;;;1.42;0.57;;;36.60;75.80;;;;;;5040804;28;20674;-75
2023/07/18 12:29:59;;;;;;;1.73;1.63;;;39.10;73.70;;;;;;5040910;28;20060;-84
2023/07/18 12:32:25;;;;;;;1.02;0.88;;;39.10;73.50;;;;;;5041162;28;20590;-73
2023/07/18 12:34:52;;;;;;;2.60;1.40;;;39.60;72.60;;;;;;5040663;28;20017;-77
2023/07/18 12:37:17;;;;;;;0.93;0.57;;;39.80;70.70;;;;;;5040740;28;20017;-75
2023/07/18 12:39:43;;;;;;;0.20;0.20;;;39.40;70.10;;;;;;5041021;28;20601;-79
2023/07/18 12:42:09;;;;;;;1.73;0.52;;;39.70;72.10;;;;;;5040444;28;20021;-79
2023/07/18 12:44:39;;;;;;;0.82;0.57;;;40.70;70.90;;;;;;5040938;28;20021;-78
2023/07/18 12:47:06;;;;;;;0.45;0.45;;;41.20;69.70;;;;;;5040771;28;20123;-74